sensor_id;sensor_type;location;lat;lon;timestamp;P1;durP1;ratioP1;P2;durP2;ratioP2
52274;SDS011;38228;50.940;4.024;2023-04-25T00:02:20;25.08;;;8.25;;
52274;SDS011;38228;50.940;4.024;2023-04-25T00:04:47;25.77;;;7.32;;
52274;SDS011;38228;50.940;4.024;2023-04-25T00:07:13;22.80;;;7.03;;
52274;SDS011;38228;50.940;4.024;2023-04-25T00:09:39;19.98;;;7.20;;
52274;SDS011;38228;50.940;4.024;2023-04-25T00:12:05;21.83;;;7.70;;
52274;SDS011;38228;50.940;4.024;2023-04-25T00:14:31;24.73;;;7.60;;
52274;SDS011;38228;50.940;4.024;2023-04-25T00:17:00;24.98;;;7.32;;
52274;SDS011;38228;50.940;4.024;2023-04-25T00:19:27;28.40;;;7.78;;
52274;SDS011;38228;50.940;4.024;2023-04-25T00:21:56;26.13;;;6.65;;
52274;SDS011;38228;50.940;4.024;2023-04-25T00:24:22;22.65;;;6.95;;
52274;SDS011;38228;50.940;4.024;2023-04-25T00:26:48;23.33;;;6.70;;
52274;SDS011;38228;50.940;4.024;2023-04-25T00:29:13;31.30;;;6.93;;
52274;SDS011;38228;50.940;4.024;2023-04-25T00:31:40;22.08;;;7.25;;
52274;SDS011;38228;50.940;4.024;2023-04-25T00:34:06;22.38;;;7.07;;
52274;SDS011;38228;50.940;4.024;2023-04-25T00:36:33;28.85;;;7.13;;
52274;SDS011;38228;50.940;4.024;2023-04-25T00:38:59;23.10;;;7.13;;
52274;SDS011;38228;50.940;4.024;2023-04-25T00:41:25;19.85;;;6.43;;
52274;SDS011;38228;50.940;4.024;2023-04-25T00:43:51;22.55;;;6.70;;
52274;SDS011;38228;50.940;4.024;2023-04-25T00:46:18;24.80;;;6.88;;
52274;SDS011;38228;50.940;4.024;2023-04-25T00:48:44;25.20;;;6.72;;
52274;SDS011;38228;50.940;4.024;2023-04-25T00:51:11;21.70;;;6.90;;
52274;SDS011;38228;50.940;4.024;2023-04-25T00:53:41;28.73;;;7.95;;
52274;SDS011;38228;50.940;4.024;2023-04-25T00:56:07;29.83;;;8.07;;
52274;SDS011;38228;50.940;4.024;2023-04-25T00:58:33;30.35;;;7.13;;
52274;SDS011;38228;50.940;4.024;2023-04-25T01:00:59;24.02;;;7.05;;
52274;SDS011;38228;50.940;4.024;2023-04-25T01:03:27;23.40;;;6.90;;
52274;SDS011;38228;50.940;4.024;2023-04-25T01:05:55;27.48;;;6.88;;
52274;SDS011;38228;50.940;4.024;2023-04-25T01:08:23;22.30;;;6.75;;
52274;SDS011;38228;50.940;4.024;2023-04-25T01:10:50;29.20;;;6.88;;
52274;SDS011;38228;50.940;4.024;2023-04-25T01:13:17;24.80;;;6.63;;
52274;SDS011;38228;50.940;4.024;2023-04-25T01:15:43;24.10;;;6.82;;
52274;SDS011;38228;50.940;4.024;2023-04-25T01:18:09;27.85;;;7.88;;
52274;SDS011;38228;50.940;4.024;2023-04-25T01:20:35;24.08;;;5.90;;
52274;SDS011;38228;50.940;4.024;2023-04-25T01:23:03;26.17;;;6.90;;
52274;SDS011;38228;50.940;4.024;2023-04-25T01:25:30;21.75;;;5.72;;
52274;SDS011;38228;50.940;4.024;2023-04-25T01:27:57;26.98;;;6.00;;
52274;SDS011;38228;50.940;4.024;2023-04-25T01:30:24;30.65;;;5.72;;
52274;SDS011;38228;50.940;4.024;2023-04-25T01:32:52;30.05;;;5.88;;
52274;SDS011;38228;50.940;4.024;2023-04-25T01:35:20;24.50;;;5.22;;
52274;SDS011;38228;50.940;4.024;2023-04-25T01:37:45;23.00;;;5.70;;
52274;SDS011;38228;50.940;4.024;2023-04-25T01:40:12;29.35;;;5.85;;
52274;SDS011;38228;50.940;4.024;2023-04-25T01:42:39;20.35;;;5.43;;
52274;SDS011;38228;50.940;4.024;2023-04-25T01:45:08;22.67;;;5.80;;
52274;SDS011;38228;50.940;4.024;2023-04-25T01:47:35;26.80;;;5.88;;
52274;SDS011;38228;50.940;4.024;2023-04-25T01:50:03;26.10;;;5.63;;
52274;SDS011;38228;50.940;4.024;2023-04-25T01:52:29;25.42;;;5.25;;
52274;SDS011;38228;50.940;4.024;2023-04-25T01:54:56;21.85;;;5.15;;
52274;SDS011;38228;50.940;4.024;2023-04-25T01:57:24;21.63;;;5.15;;
52274;SDS011;38228;50.940;4.024;2023-04-25T01:59:50;23.00;;;4.60;;
52274;SDS011;38228;50.940;4.024;2023-04-25T02:02:16;23.67;;;4.65;;
52274;SDS011;38228;50.940;4.024;2023-04-25T02:04:42;27.48;;;4.97;;
52274;SDS011;38228;50.940;4.024;2023-04-25T02:07:08;23.15;;;5.18;;
52274;SDS011;38228;50.940;4.024;2023-04-25T02:09:34;24.48;;;5.00;;
52274;SDS011;38228;50.940;4.024;2023-04-25T02:12:00;25.30;;;5.18;;
52274;SDS011;38228;50.940;4.024;2023-04-25T02:14:26;16.85;;;5.13;;
52274;SDS011;38228;50.940;4.024;2023-04-25T02:16:53;23.10;;;5.07;;
52274;SDS011;38228;50.940;4.024;2023-04-25T02:19:19;27.40;;;5.05;;
52274;SDS011;38228;50.940;4.024;2023-04-25T02:21:45;20.98;;;4.82;;
52274;SDS011;38228;50.940;4.024;2023-04-25T02:24:11;25.88;;;5.03;;
52274;SDS011;38228;50.940;4.024;2023-04-25T02:26:37;23.85;;;4.85;;
52274;SDS011;38228;50.940;4.024;2023-04-25T02:29:02;25.77;;;5.75;;
52274;SDS011;38228;50.940;4.024;2023-04-25T02:31:28;18.35;;;5.03;;
52274;SDS011;38228;50.940;4.024;2023-04-25T02:33:54;24.70;;;5.28;;
52274;SDS011;38228;50.940;4.024;2023-04-25T02:36:20;28.17;;;5.60;;
52274;SDS011;38228;50.940;4.024;2023-04-25T02:38:46;21.65;;;4.40;;
52274;SDS011;38228;50.940;4.024;2023-04-25T02:41:12;26.77;;;5.30;;
52274;SDS011;38228;50.940;4.024;2023-04-25T02:43:37;26.05;;;4.95;;
52274;SDS011;38228;50.940;4.024;2023-04-25T02:46:03;19.02;;;4.85;;
52274;SDS011;38228;50.940;4.024;2023-04-25T02:48:29;30.23;;;5.88;;
52274;SDS011;38228;50.940;4.024;2023-04-25T02:50:56;34.28;;;5.65;;
52274;SDS011;38228;50.940;4.024;2023-04-25T02:53:22;30.20;;;5.22;;
52274;SDS011;38228;50.940;4.024;2023-04-25T02:55:47;22.05;;;4.78;;
52274;SDS011;38228;50.940;4.024;2023-04-25T02:58:13;21.63;;;5.15;;
52274;SDS011;38228;50.940;4.024;2023-04-25T03:00:40;32.60;;;6.10;;
52274;SDS011;38228;50.940;4.024;2023-04-25T03:03:06;20.70;;;5.47;;
52274;SDS011;38228;50.940;4.024;2023-04-25T03:05:32;20.75;;;4.88;;
52274;SDS011;38228;50.940;4.024;2023-04-25T03:07:57;29.45;;;5.82;;
52274;SDS011;38228;50.940;4.024;2023-04-25T03:10:23;26.35;;;4.95;;
52274;SDS011;38228;50.940;4.024;2023-04-25T03:12:49;26.83;;;5.45;;
52274;SDS011;38228;50.940;4.024;2023-04-25T03:15:15;23.77;;;5.18;;
52274;SDS011;38228;50.940;4.024;2023-04-25T03:17:41;24.80;;;5.28;;
52274;SDS011;38228;50.940;4.024;2023-04-25T03:20:07;26.17;;;4.82;;
52274;SDS011;38228;50.940;4.024;2023-04-25T03:22:33;28.38;;;5.57;;
52274;SDS011;38228;50.940;4.024;2023-04-25T03:24:59;18.35;;;4.50;;
52274;SDS011;38228;50.940;4.024;2023-04-25T03:27:25;26.70;;;5.18;;
52274;SDS011;38228;50.940;4.024;2023-04-25T03:29:51;26.58;;;5.30;;
52274;SDS011;38228;50.940;4.024;2023-04-25T03:32:18;25.75;;;5.35;;
52274;SDS011;38228;50.940;4.024;2023-04-25T03:34:43;22.13;;;5.63;;
52274;SDS011;38228;50.940;4.024;2023-04-25T03:37:09;30.55;;;5.70;;
52274;SDS011;38228;50.940;4.024;2023-04-25T03:39:35;24.60;;;5.20;;
52274;SDS011;38228;50.940;4.024;2023-04-25T03:42:01;25.45;;;5.68;;
52274;SDS011;38228;50.940;4.024;2023-04-25T03:44:27;25.92;;;6.32;;
52274;SDS011;38228;50.940;4.024;2023-04-25T03:46:54;26.33;;;4.88;;
52274;SDS011;38228;50.940;4.024;2023-04-25T03:49:20;30.05;;;5.70;;
52274;SDS011;38228;50.940;4.024;2023-04-25T03:51:47;25.42;;;5.85;;
52274;SDS011;38228;50.940;4.024;2023-04-25T03:54:13;24.55;;;5.15;;
52274;SDS011;38228;50.940;4.024;2023-04-25T03:56:38;22.98;;;5.63;;
52274;SDS011;38228;50.940;4.024;2023-04-25T03:59:04;27.77;;;5.90;;
52274;SDS011;38228;50.940;4.024;2023-04-25T04:01:30;32.83;;;5.20;;
52274;SDS011;38228;50.940;4.024;2023-04-25T04:03:56;27.50;;;5.70;;
52274;SDS011;38228;50.940;4.024;2023-04-25T04:06:22;27.50;;;5.63;;
52274;SDS011;38228;50.940;4.024;2023-04-25T04:08:47;31.10;;;6.10;;
52274;SDS011;38228;50.940;4.024;2023-04-25T04:11:13;26.98;;;5.18;;
52274;SDS011;38228;50.940;4.024;2023-04-25T04:13:39;26.23;;;5.25;;
52274;SDS011;38228;50.940;4.024;2023-04-25T04:16:05;23.10;;;5.22;;
52274;SDS011;38228;50.940;4.024;2023-04-25T04:18:31;17.88;;;4.10;;
52274;SDS011;38228;50.940;4.024;2023-04-25T04:20:58;23.65;;;5.10;;
52274;SDS011;38228;50.940;4.024;2023-04-25T04:23:24;16.45;;;4.30;;
52274;SDS011;38228;50.940;4.024;2023-04-25T04:25:52;22.25;;;4.40;;
52274;SDS011;38228;50.940;4.024;2023-04-25T04:28:19;21.88;;;5.20;;
52274;SDS011;38228;50.940;4.024;2023-04-25T04:30:45;17.58;;;4.57;;
52274;SDS011;38228;50.940;4.024;2023-04-25T04:33:11;22.98;;;4.68;;
52274;SDS011;38228;50.940;4.024;2023-04-25T04:35:37;22.98;;;4.95;;
52274;SDS011;38228;50.940;4.024;2023-04-25T04:38:03;19.80;;;4.88;;
52274;SDS011;38228;50.940;4.024;2023-04-25T04:40:30;23.73;;;5.15;;
52274;SDS011;38228;50.940;4.024;2023-04-25T04:42:57;21.35;;;4.70;;
52274;SDS011;38228;50.940;4.024;2023-04-25T04:45:23;28.92;;;5.15;;
52274;SDS011;38228;50.940;4.024;2023-04-25T04:47:49;15.77;;;4.30;;
52274;SDS011;38228;50.940;4.024;2023-04-25T04:50:15;16.00;;;4.47;;
52274;SDS011;38228;50.940;4.024;2023-04-25T04:52:42;19.02;;;5.05;;
52274;SDS011;38228;50.940;4.024;2023-04-25T04:55:08;13.85;;;4.55;;
52274;SDS011;38228;50.940;4.024;2023-04-25T04:57:34;20.58;;;4.90;;
52274;SDS011;38228;50.940;4.024;2023-04-25T05:00:00;22.35;;;5.22;;
52274;SDS011;38228;50.940;4.024;2023-04-25T05:02:29;22.33;;;5.22;;
52274;SDS011;38228;50.940;4.024;2023-04-25T05:04:55;17.58;;;5.03;;
52274;SDS011;38228;50.940;4.024;2023-04-25T05:07:21;19.58;;;4.93;;
52274;SDS011;38228;50.940;4.024;2023-04-25T05:09:47;14.57;;;4.53;;
52274;SDS011;38228;50.940;4.024;2023-04-25T05:12:13;20.13;;;4.22;;
52274;SDS011;38228;50.940;4.024;2023-04-25T05:14:40;17.13;;;4.18;;
52274;SDS011;38228;50.940;4.024;2023-04-25T05:17:07;16.13;;;3.70;;
52274;SDS011;38228;50.940;4.024;2023-04-25T05:19:34;14.93;;;4.78;;
52274;SDS011;38228;50.940;4.024;2023-04-25T05:22:02;16.25;;;4.60;;
52274;SDS011;38228;50.940;4.024;2023-04-25T05:24:28;19.65;;;4.68;;
52274;SDS011;38228;50.940;4.024;2023-04-25T05:26:55;17.00;;;4.85;;
52274;SDS011;38228;50.940;4.024;2023-04-25T05:29:21;19.08;;;4.68;;
52274;SDS011;38228;50.940;4.024;2023-04-25T05:31:47;22.08;;;4.97;;
52274;SDS011;38228;50.940;4.024;2023-04-25T05:34:13;18.92;;;4.10;;
52274;SDS011;38228;50.940;4.024;2023-04-25T05:36:39;22.02;;;4.97;;
52274;SDS011;38228;50.940;4.024;2023-04-25T05:39:05;18.30;;;4.60;;
52274;SDS011;38228;50.940;4.024;2023-04-25T05:41:31;19.98;;;4.50;;
52274;SDS011;38228;50.940;4.024;2023-04-25T05:43:57;23.02;;;5.38;;
52274;SDS011;38228;50.940;4.024;2023-04-25T05:46:22;20.65;;;4.65;;
52274;SDS011;38228;50.940;4.024;2023-04-25T05:48:48;21.42;;;5.30;;
52274;SDS011;38228;50.940;4.024;2023-04-25T05:51:14;19.73;;;4.95;;
52274;SDS011;38228;50.940;4.024;2023-04-25T05:53:41;20.42;;;5.40;;
52274;SDS011;38228;50.940;4.024;2023-04-25T05:56:07;23.13;;;4.88;;
52274;SDS011;38228;50.940;4.024;2023-04-25T05:58:35;18.50;;;4.40;;
52274;SDS011;38228;50.940;4.024;2023-04-25T06:01:12;15.88;;;4.82;;
52274;SDS011;38228;50.940;4.024;2023-04-25T06:03:41;19.90;;;5.05;;
52274;SDS011;38228;50.940;4.024;2023-04-25T06:06:17;23.05;;;4.55;;
52274;SDS011;38228;50.940;4.024;2023-04-25T06:08:45;21.90;;;4.53;;
52274;SDS011;38228;50.940;4.024;2023-04-25T06:11:11;20.90;;;4.47;;
52274;SDS011;38228;50.940;4.024;2023-04-25T06:13:37;18.50;;;4.88;;
52274;SDS011;38228;50.940;4.024;2023-04-25T06:16:05;20.35;;;4.38;;
52274;SDS011;38228;50.940;4.024;2023-04-25T06:18:31;18.00;;;4.97;;
52274;SDS011;38228;50.940;4.024;2023-04-25T06:20:57;17.52;;;4.60;;
52274;SDS011;38228;50.940;4.024;2023-04-25T06:23:23;22.17;;;5.20;;
52274;SDS011;38228;50.940;4.024;2023-04-25T06:25:48;20.55;;;4.32;;
52274;SDS011;38228;50.940;4.024;2023-04-25T06:28:15;15.82;;;4.80;;
52274;SDS011;38228;50.940;4.024;2023-04-25T06:30:41;11.65;;;3.35;;
52274;SDS011;38228;50.940;4.024;2023-04-25T06:33:07;21.25;;;4.25;;
52274;SDS011;38228;50.940;4.024;2023-04-25T06:35:33;20.90;;;3.72;;
52274;SDS011;38228;50.940;4.024;2023-04-25T06:38:00;19.05;;;4.25;;
52274;SDS011;38228;50.940;4.024;2023-04-25T06:40:26;21.85;;;4.20;;
52274;SDS011;38228;50.940;4.024;2023-04-25T06:42:51;23.60;;;4.43;;
52274;SDS011;38228;50.940;4.024;2023-04-25T06:45:18;18.83;;;4.20;;
52274;SDS011;38228;50.940;4.024;2023-04-25T06:47:44;14.65;;;3.80;;
52274;SDS011;38228;50.940;4.024;2023-04-25T06:50:10;12.98;;;3.58;;
52274;SDS011;38228;50.940;4.024;2023-04-25T06:52:36;12.70;;;3.20;;
52274;SDS011;38228;50.940;4.024;2023-04-25T06:55:02;15.23;;;3.65;;
52274;SDS011;38228;50.940;4.024;2023-04-25T06:57:29;18.58;;;3.45;;
52274;SDS011;38228;50.940;4.024;2023-04-25T06:59:56;15.55;;;3.40;;
52274;SDS011;38228;50.940;4.024;2023-04-25T07:02:22;16.88;;;3.40;;
52274;SDS011;38228;50.940;4.024;2023-04-25T07:04:53;12.00;;;3.08;;
52274;SDS011;38228;50.940;4.024;2023-04-25T07:07:24;14.80;;;3.45;;
52274;SDS011;38228;50.940;4.024;2023-04-25T07:09:50;12.73;;;3.85;;
52274;SDS011;38228;50.940;4.024;2023-04-25T07:12:16;17.58;;;3.75;;
52274;SDS011;38228;50.940;4.024;2023-04-25T07:14:43;15.88;;;3.65;;
52274;SDS011;38228;50.940;4.024;2023-04-25T07:17:10;17.85;;;3.22;;
52274;SDS011;38228;50.940;4.024;2023-04-25T07:19:40;15.32;;;3.40;;
52274;SDS011;38228;50.940;4.024;2023-04-25T07:22:08;13.02;;;3.50;;
52274;SDS011;38228;50.940;4.024;2023-04-25T07:24:34;12.27;;;3.00;;
52274;SDS011;38228;50.940;4.024;2023-04-25T07:27:00;11.05;;;2.67;;
52274;SDS011;38228;50.940;4.024;2023-04-25T07:29:29;14.30;;;2.67;;
52274;SDS011;38228;50.940;4.024;2023-04-25T07:31:56;16.60;;;2.88;;
52274;SDS011;38228;50.940;4.024;2023-04-25T07:34:22;19.55;;;3.20;;
52274;SDS011;38228;50.940;4.024;2023-04-25T07:36:48;13.52;;;2.35;;
52274;SDS011;38228;50.940;4.024;2023-04-25T07:39:14;12.25;;;2.75;;
52274;SDS011;38228;50.940;4.024;2023-04-25T07:41:39;9.55;;;2.50;;
52274;SDS011;38228;50.940;4.024;2023-04-25T07:44:05;14.05;;;2.95;;
52274;SDS011;38228;50.940;4.024;2023-04-25T07:46:32;12.50;;;2.63;;
52274;SDS011;38228;50.940;4.024;2023-04-25T07:48:58;11.77;;;2.83;;
52274;SDS011;38228;50.940;4.024;2023-04-25T07:51:23;9.43;;;1.85;;
52274;SDS011;38228;50.940;4.024;2023-04-25T07:53:49;10.73;;;2.30;;
52274;SDS011;38228;50.940;4.024;2023-04-25T07:56:15;9.13;;;1.85;;
52274;SDS011;38228;50.940;4.024;2023-04-25T07:58:43;7.20;;;1.73;;
52274;SDS011;38228;50.940;4.024;2023-04-25T08:01:09;10.10;;;1.80;;
52274;SDS011;38228;50.940;4.024;2023-04-25T08:03:38;15.32;;;1.70;;
52274;SDS011;38228;50.940;4.024;2023-04-25T08:06:04;13.32;;;1.70;;
52274;SDS011;38228;50.940;4.024;2023-04-25T08:08:30;10.50;;;1.52;;
52274;SDS011;38228;50.940;4.024;2023-04-25T08:10:56;8.57;;;1.95;;
52274;SDS011;38228;50.940;4.024;2023-04-25T08:13:21;10.32;;;2.00;;
52274;SDS011;38228;50.940;4.024;2023-04-25T08:15:47;11.55;;;2.17;;
52274;SDS011;38228;50.940;4.024;2023-04-25T08:18:13;6.90;;;1.40;;
52274;SDS011;38228;50.940;4.024;2023-04-25T08:20:39;10.45;;;2.10;;
52274;SDS011;38228;50.940;4.024;2023-04-25T08:23:07;9.02;;;2.17;;
52274;SDS011;38228;50.940;4.024;2023-04-25T08:25:33;14.13;;;2.50;;
52274;SDS011;38228;50.940;4.024;2023-04-25T08:27:59;8.20;;;1.90;;
52274;SDS011;38228;50.940;4.024;2023-04-25T08:30:27;10.85;;;1.90;;
52274;SDS011;38228;50.940;4.024;2023-04-25T08:32:55;9.27;;;1.80;;
52274;SDS011;38228;50.940;4.024;2023-04-25T08:35:20;10.90;;;2.20;;
52274;SDS011;38228;50.940;4.024;2023-04-25T08:37:48;9.25;;;1.60;;
52274;SDS011;38228;50.940;4.024;2023-04-25T08:40:15;7.32;;;1.65;;
52274;SDS011;38228;50.940;4.024;2023-04-25T08:42:41;10.85;;;1.60;;
52274;SDS011;38228;50.940;4.024;2023-04-25T08:45:09;10.75;;;1.90;;
52274;SDS011;38228;50.940;4.024;2023-04-25T08:47:35;11.73;;;1.55;;
52274;SDS011;38228;50.940;4.024;2023-04-25T08:50:03;10.60;;;1.60;;
52274;SDS011;38228;50.940;4.024;2023-04-25T08:52:32;8.85;;;1.83;;
52274;SDS011;38228;50.940;4.024;2023-04-25T08:55:07;10.38;;;2.22;;
52274;SDS011;38228;50.940;4.024;2023-04-25T08:57:34;11.98;;;1.90;;
52274;SDS011;38228;50.940;4.024;2023-04-25T09:00:00;13.93;;;2.10;;
52274;SDS011;38228;50.940;4.024;2023-04-25T09:02:28;16.17;;;2.13;;
52274;SDS011;38228;50.940;4.024;2023-04-25T09:04:58;12.57;;;1.90;;
52274;SDS011;38228;50.940;4.024;2023-04-25T09:07:24;10.50;;;2.20;;
52274;SDS011;38228;50.940;4.024;2023-04-25T09:09:51;6.82;;;1.50;;
52274;SDS011;38228;50.940;4.024;2023-04-25T09:12:20;7.30;;;1.45;;
52274;SDS011;38228;50.940;4.024;2023-04-25T09:15:07;9.23;;;1.85;;
52274;SDS011;38228;50.940;4.024;2023-04-25T09:17:36;11.88;;;1.88;;
52274;SDS011;38228;50.940;4.024;2023-04-25T09:20:08;6.90;;;1.40;;
52274;SDS011;38228;50.940;4.024;2023-04-25T09:22:38;14.00;;;2.13;;
52274;SDS011;38228;50.940;4.024;2023-04-25T09:25:08;5.32;;;1.50;;
52274;SDS011;38228;50.940;4.024;2023-04-25T09:27:50;6.05;;;1.15;;
52274;SDS011;38228;50.940;4.024;2023-04-25T09:30:39;6.22;;;1.55;;
52274;SDS011;38228;50.940;4.024;2023-04-25T09:33:32;9.98;;;1.65;;
52274;SDS011;38228;50.940;4.024;2023-04-25T09:36:09;8.45;;;1.17;;
52274;SDS011;38228;50.940;4.024;2023-04-25T09:38:42;6.97;;;1.10;;
52274;SDS011;38228;50.940;4.024;2023-04-25T09:41:09;4.93;;;1.02;;
52274;SDS011;38228;50.940;4.024;2023-04-25T09:43:38;5.53;;;1.38;;
52274;SDS011;38228;50.940;4.024;2023-04-25T09:46:08;5.53;;;1.40;;
52274;SDS011;38228;50.940;4.024;2023-04-25T09:48:36;6.57;;;1.13;;
52274;SDS011;38228;50.940;4.024;2023-04-25T09:51:14;8.13;;;1.30;;
52274;SDS011;38228;50.940;4.024;2023-04-25T09:53:41;9.35;;;1.30;;
52274;SDS011;38228;50.940;4.024;2023-04-25T09:56:09;10.02;;;1.27;;
52274;SDS011;38228;50.940;4.024;2023-04-25T09:58:37;10.88;;;1.35;;
52274;SDS011;38228;50.940;4.024;2023-04-25T10:01:05;8.98;;;1.60;;
52274;SDS011;38228;50.940;4.024;2023-04-25T10:03:35;11.85;;;1.98;;
52274;SDS011;38228;50.940;4.024;2023-04-25T10:06:09;14.75;;;1.55;;
52274;SDS011;38228;50.940;4.024;2023-04-25T10:08:38;17.30;;;2.20;;
52274;SDS011;38228;50.940;4.024;2023-04-25T10:11:07;5.90;;;1.02;;
52274;SDS011;38228;50.940;4.024;2023-04-25T10:13:34;12.65;;;1.58;;
52274;SDS011;38228;50.940;4.024;2023-04-25T10:16:01;9.07;;;1.38;;
52274;SDS011;38228;50.940;4.024;2023-04-25T10:18:29;10.50;;;1.83;;
52274;SDS011;38228;50.940;4.024;2023-04-25T10:20:59;11.25;;;1.42;;
52274;SDS011;38228;50.940;4.024;2023-04-25T10:23:27;8.73;;;1.63;;
52274;SDS011;38228;50.940;4.024;2023-04-25T10:25:55;6.05;;;1.23;;
52274;SDS011;38228;50.940;4.024;2023-04-25T10:28:24;5.72;;;0.93;;
52274;SDS011;38228;50.940;4.024;2023-04-25T10:31:23;7.70;;;1.25;;
52274;SDS011;38228;50.940;4.024;2023-04-25T10:36:14;4.75;;;1.15;;
52274;SDS011;38228;50.940;4.024;2023-04-25T10:38:46;4.50;;;1.00;;
52274;SDS011;38228;50.940;4.024;2023-04-25T10:41:13;7.60;;;1.38;;
52274;SDS011;38228;50.940;4.024;2023-04-25T10:43:40;5.35;;;1.05;;
52274;SDS011;38228;50.940;4.024;2023-04-25T10:46:24;6.00;;;1.27;;
52274;SDS011;38228;50.940;4.024;2023-04-25T10:48:57;4.13;;;0.82;;
52274;SDS011;38228;50.940;4.024;2023-04-25T10:54:01;4.15;;;0.88;;
52274;SDS011;38228;50.940;4.024;2023-04-25T10:56:39;5.78;;;0.80;;
52274;SDS011;38228;50.940;4.024;2023-04-25T11:01:42;4.97;;;1.10;;
52274;SDS011;38228;50.940;4.024;2023-04-25T11:10:26;10.57;;;1.35;;
52274;SDS011;38228;50.940;4.024;2023-04-25T11:12:52;9.85;;;1.17;;
52274;SDS011;38228;50.940;4.024;2023-04-25T11:15:19;6.63;;;1.10;;
52274;SDS011;38228;50.940;4.024;2023-04-25T11:17:44;6.75;;;1.65;;
52274;SDS011;38228;50.940;4.024;2023-04-25T11:20:11;5.70;;;1.38;;
52274;SDS011;38228;50.940;4.024;2023-04-25T11:22:38;5.95;;;1.30;;
52274;SDS011;38228;50.940;4.024;2023-04-25T11:25:06;5.60;;;1.30;;
52274;SDS011;38228;50.940;4.024;2023-04-25T11:27:34;6.07;;;1.30;;
52274;SDS011;38228;50.940;4.024;2023-04-25T11:32:58;3.70;;;1.33;;
52274;SDS011;38228;50.940;4.024;2023-04-25T11:35:25;10.43;;;1.13;;
52274;SDS011;38228;50.940;4.024;2023-04-25T11:37:51;5.22;;;1.10;;
52274;SDS011;38228;50.940;4.024;2023-04-25T11:40:17;4.95;;;0.98;;
52274;SDS011;38228;50.940;4.024;2023-04-25T11:45:30;4.53;;;1.05;;
52274;SDS011;38228;50.940;4.024;2023-04-25T11:47:56;3.97;;;1.02;;
52274;SDS011;38228;50.940;4.024;2023-04-25T11:50:22;2.83;;;0.82;;
52274;SDS011;38228;50.940;4.024;2023-04-25T11:52:48;6.68;;;0.88;;
52274;SDS011;38228;50.940;4.024;2023-04-25T11:55:14;5.18;;;1.00;;
52274;SDS011;38228;50.940;4.024;2023-04-25T11:57:42;6.15;;;1.45;;
52274;SDS011;38228;50.940;4.024;2023-04-25T12:00:13;6.20;;;1.38;;
52274;SDS011;38228;50.940;4.024;2023-04-25T12:02:42;7.70;;;1.00;;
52274;SDS011;38228;50.940;4.024;2023-04-25T12:05:11;5.53;;;1.10;;
52274;SDS011;38228;50.940;4.024;2023-04-25T12:07:40;4.55;;;1.00;;
52274;SDS011;38228;50.940;4.024;2023-04-25T12:10:12;5.85;;;1.40;;
52274;SDS011;38228;50.940;4.024;2023-04-25T12:12:44;6.75;;;1.70;;
52274;SDS011;38228;50.940;4.024;2023-04-25T12:17:44;4.47;;;1.40;;
52274;SDS011;38228;50.940;4.024;2023-04-25T12:20:21;6.10;;;1.38;;
52274;SDS011;38228;50.940;4.024;2023-04-25T12:22:50;6.95;;;1.35;;
52274;SDS011;38228;50.940;4.024;2023-04-25T12:33:30;6.97;;;1.70;;
52274;SDS011;38228;50.940;4.024;2023-04-25T12:36:00;5.82;;;1.27;;
52274;SDS011;38228;50.940;4.024;2023-04-25T12:38:36;6.35;;;1.45;;
52274;SDS011;38228;50.940;4.024;2023-04-25T12:41:03;7.50;;;1.58;;
52274;SDS011;38228;50.940;4.024;2023-04-25T12:43:28;9.35;;;1.77;;
52274;SDS011;38228;50.940;4.024;2023-04-25T12:45:55;7.95;;;1.42;;
52274;SDS011;38228;50.940;4.024;2023-04-25T12:48:21;11.48;;;1.40;;
52274;SDS011;38228;50.940;4.024;2023-04-25T12:50:48;7.35;;;1.45;;
52274;SDS011;38228;50.940;4.024;2023-04-25T12:53:19;9.43;;;1.17;;
52274;SDS011;38228;50.940;4.024;2023-04-25T12:55:46;7.13;;;1.30;;
52274;SDS011;38228;50.940;4.024;2023-04-25T12:58:12;5.43;;;1.10;;
52274;SDS011;38228;50.940;4.024;2023-04-25T13:00:42;3.53;;;1.25;;
52274;SDS011;38228;50.940;4.024;2023-04-25T13:03:08;7.90;;;1.50;;
52274;SDS011;38228;50.940;4.024;2023-04-25T13:05:36;4.05;;;1.23;;
52274;SDS011;38228;50.940;4.024;2023-04-25T13:08:02;7.07;;;1.17;;
52274;SDS011;38228;50.940;4.024;2023-04-25T13:10:29;8.57;;;1.40;;
52274;SDS011;38228;50.940;4.024;2023-04-25T13:12:55;5.63;;;1.67;;
52274;SDS011;38228;50.940;4.024;2023-04-25T13:15:20;5.85;;;1.95;;
52274;SDS011;38228;50.940;4.024;2023-04-25T13:17:47;6.32;;;1.38;;
52274;SDS011;38228;50.940;4.024;2023-04-25T13:20:13;5.93;;;1.70;;
52274;SDS011;38228;50.940;4.024;2023-04-25T13:22:42;5.45;;;1.40;;
52274;SDS011;38228;50.940;4.024;2023-04-25T13:25:10;9.85;;;1.60;;
52274;SDS011;38228;50.940;4.024;2023-04-25T13:27:36;12.60;;;1.65;;
52274;SDS011;38228;50.940;4.024;2023-04-25T13:30:04;9.70;;;1.70;;
52274;SDS011;38228;50.940;4.024;2023-04-25T13:32:36;5.47;;;1.35;;
52274;SDS011;38228;50.940;4.024;2023-04-25T13:35:06;6.78;;;1.30;;
52274;SDS011;38228;50.940;4.024;2023-04-25T13:37:52;8.70;;;1.58;;
52274;SDS011;38228;50.940;4.024;2023-04-25T13:40:18;6.38;;;1.05;;
52274;SDS011;38228;50.940;4.024;2023-04-25T13:42:43;4.15;;;1.08;;
52274;SDS011;38228;50.940;4.024;2023-04-25T13:45:10;8.45;;;1.40;;
52274;SDS011;38228;50.940;4.024;2023-04-25T13:47:36;8.02;;;1.42;;
52274;SDS011;38228;50.940;4.024;2023-04-25T13:50:02;5.10;;;1.50;;
52274;SDS011;38228;50.940;4.024;2023-04-25T13:52:29;5.68;;;1.55;;
52274;SDS011;38228;50.940;4.024;2023-04-25T13:54:54;6.55;;;1.52;;
52274;SDS011;38228;50.940;4.024;2023-04-25T13:57:20;6.03;;;1.73;;
52274;SDS011;38228;50.940;4.024;2023-04-25T13:59:46;11.57;;;2.10;;
52274;SDS011;38228;50.940;4.024;2023-04-25T14:02:12;5.57;;;1.35;;
52274;SDS011;38228;50.940;4.024;2023-04-25T14:04:38;4.95;;;1.35;;
52274;SDS011;38228;50.940;4.024;2023-04-25T14:07:04;6.80;;;1.33;;
52274;SDS011;38228;50.940;4.024;2023-04-25T14:09:30;6.65;;;1.48;;
52274;SDS011;38228;50.940;4.024;2023-04-25T14:11:55;10.80;;;1.60;;
52274;SDS011;38228;50.940;4.024;2023-04-25T14:14:21;9.15;;;1.83;;
52274;SDS011;38228;50.940;4.024;2023-04-25T14:16:48;5.38;;;1.45;;
52274;SDS011;38228;50.940;4.024;2023-04-25T14:19:15;8.88;;;1.50;;
52274;SDS011;38228;50.940;4.024;2023-04-25T14:21:41;4.32;;;1.27;;
52274;SDS011;38228;50.940;4.024;2023-04-25T14:24:08;4.95;;;1.50;;
52274;SDS011;38228;50.940;4.024;2023-04-25T14:26:35;6.68;;;1.25;;
52274;SDS011;38228;50.940;4.024;2023-04-25T14:29:02;5.60;;;1.20;;
52274;SDS011;38228;50.940;4.024;2023-04-25T14:31:36;6.97;;;1.42;;
52274;SDS011;38228;50.940;4.024;2023-04-25T14:34:04;8.48;;;1.35;;
52274;SDS011;38228;50.940;4.024;2023-04-25T14:36:30;7.38;;;1.20;;
52274;SDS011;38228;50.940;4.024;2023-04-25T14:38:57;5.05;;;1.00;;
52274;SDS011;38228;50.940;4.024;2023-04-25T14:41:23;5.25;;;1.13;;
52274;SDS011;38228;50.940;4.024;2023-04-25T14:43:50;7.15;;;1.52;;
52274;SDS011;38228;50.940;4.024;2023-04-25T14:46:16;5.75;;;1.20;;
52274;SDS011;38228;50.940;4.024;2023-04-25T14:48:41;6.63;;;1.20;;
52274;SDS011;38228;50.940;4.024;2023-04-25T14:51:07;8.85;;;1.75;;
52274;SDS011;38228;50.940;4.024;2023-04-25T14:53:33;7.72;;;1.70;;
52274;SDS011;38228;50.940;4.024;2023-04-25T14:55:59;4.93;;;1.20;;
52274;SDS011;38228;50.940;4.024;2023-04-25T14:58:25;7.82;;;1.17;;
52274;SDS011;38228;50.940;4.024;2023-04-25T15:00:50;8.57;;;1.63;;
52274;SDS011;38228;50.940;4.024;2023-04-25T15:03:16;6.85;;;1.40;;
52274;SDS011;38228;50.940;4.024;2023-04-25T15:05:43;3.97;;;1.25;;
52274;SDS011;38228;50.940;4.024;2023-04-25T15:08:09;4.63;;;1.40;;
52274;SDS011;38228;50.940;4.024;2023-04-25T15:10:37;3.90;;;1.10;;